createdAt,value
2018-02-13T00:00:04.376Z,3.8
2018-02-13T00:15:06.119Z,3.7
2018-02-13T00:30:04.535Z,3.5
2018-02-13T00:45:04.901Z,3.3
2018-02-13T01:00:04.541Z,3.1
2018-02-13T01:15:04.635Z,3
2018-02-13T01:30:05.316Z,3
2018-02-13T01:45:04.229Z,2.8
2018-02-13T02:00:05.214Z,2.6
2018-02-13T02:15:04.607Z,2.5
2018-02-13T02:30:04.858Z,2.7
2018-02-13T02:45:04.856Z,2.5
2018-02-13T03:00:05.006Z,2.7
2018-02-13T03:15:05.360Z,2.2
2018-02-13T03:30:04.603Z,2.5
2018-02-13T03:45:07.816Z,2.4
2018-02-13T04:00:04.783Z,2.4
2018-02-13T04:15:05.196Z,2.3
2018-02-13T04:30:04.367Z,2.5
2018-02-13T04:45:04.245Z,2.6
2018-02-13T05:00:05.498Z,2.5
2018-02-13T05:15:04.613Z,2.7
2018-02-13T05:30:04.983Z,2.6
2018-02-13T05:45:04.487Z,2.4
2018-02-13T06:00:05.213Z,2.5
2018-02-13T06:15:05.290Z,2.3
2018-02-13T06:30:04.766Z,2.3
2018-02-13T06:45:04.577Z,1.9
2018-02-13T07:00:04.979Z,1.8
2018-02-13T07:15:05.072Z,1.8
2018-02-13T07:30:05.458Z,1.9
2018-02-13T07:45:04.645Z,1.7
2018-02-13T08:00:04.729Z,1.8
2018-02-13T08:15:04.595Z,2
2018-02-13T08:30:04.909Z,3.6
2018-02-13T08:45:04.363Z,5.1
2018-02-13T09:00:06.019Z,6.4
2018-02-13T09:15:04.565Z,7.2
2018-02-13T09:30:05.318Z,7.8
2018-02-13T09:45:04.798Z,8.4
2018-02-13T10:00:04.299Z,8.5
2018-02-13T10:15:05.631Z,8
2018-02-13T10:30:06.320Z,7.1
2018-02-13T10:45:05.165Z,6.1
2018-02-13T11:00:08.028Z,5.2
2018-02-13T11:15:04.735Z,4.9
2018-02-13T11:30:04.534Z,4.8
2018-02-13T11:45:05.226Z,4.9
2018-02-13T12:00:04.724Z,5.1
2018-02-13T12:15:04.823Z,5
2018-02-13T12:30:04.951Z,5
2018-02-13T12:45:04.995Z,5.1
2018-02-13T13:00:05.161Z,5.2
2018-02-13T13:15:04.905Z,5.4
2018-02-13T13:30:04.673Z,5.5
2018-02-13T13:45:06.308Z,5.5
2018-02-13T14:00:05.169Z,5.5
2018-02-13T14:15:04.650Z,5.6
2018-02-13T14:30:04.468Z,5.8
2018-02-13T14:45:05.170Z,5.6
2018-02-13T15:00:05.235Z,5.4
2018-02-13T15:15:04.738Z,5.4
2018-02-13T15:30:04.569Z,5.6
2018-02-13T15:45:04.947Z,5.6
2018-02-13T16:00:05.039Z,5.3
2018-02-13T16:15:05.141Z,5
2018-02-13T16:30:04.339Z,5
2018-02-13T16:45:04.709Z,4.8
2018-02-13T17:00:05.216Z,4.6
2018-02-13T17:15:05.015Z,4.5
2018-02-13T17:30:04.762Z,4.4
2018-02-13T17:45:04.251Z,4.3
2018-02-13T18:00:05.109Z,4
2018-02-13T18:15:05.132Z,4
2018-02-13T18:30:04.831Z,3.8
2018-02-13T18:45:04.276Z,3.4
2018-02-13T19:00:08.113Z,3.4
2018-02-13T19:15:04.523Z,3.2
2018-02-13T19:30:05.144Z,3.1
2018-02-13T19:45:05.026Z,3
2018-02-13T20:00:05.215Z,3
2018-02-13T20:15:05.124Z,2.7
2018-02-13T20:30:04.294Z,2.6
2018-02-13T20:45:04.347Z,2.4
2018-02-13T21:00:04.785Z,2.4
2018-02-13T21:15:04.709Z,2.4
2018-02-13T21:30:04.284Z,2.1
2018-02-13T21:45:04.632Z,2.1
2018-02-13T22:00:05.274Z,2.1
2018-02-13T22:15:05.143Z,1.9
2018-02-13T22:30:04.773Z,1.7
2018-02-13T22:45:04.286Z,1.4
2018-02-13T23:00:04.465Z,1.4
2018-02-13T23:15:04.880Z,1.6
2018-02-13T23:30:12.006Z,1.7
2018-02-13T23:45:07.493Z,1.6
